sensor_id;sensor_type;location;lat;lon;timestamp;P1;durP1;ratioP1;P2;durP2;ratioP2
74904;SDS011;63465;50.862;6.220;2023-02-28T00:02:20;3.30;;;2.90;;
74904;SDS011;63465;50.862;6.220;2023-02-28T00:04:47;8.90;;;2.73;;
74904;SDS011;63465;50.862;6.220;2023-02-28T00:07:18;2.93;;;2.73;;
74904;SDS011;63465;50.862;6.220;2023-02-28T00:09:44;3.90;;;2.50;;
74904;SDS011;63465;50.862;6.220;2023-02-28T00:12:13;2.20;;;2.10;;
74904;SDS011;63465;50.862;6.220;2023-02-28T00:14:39;2.47;;;2.33;;
74904;SDS011;63465;50.862;6.220;2023-02-28T00:17:06;10.03;;;5.50;;
74904;SDS011;63465;50.862;6.220;2023-02-28T00:19:33;5.10;;;3.67;;
74904;SDS011;63465;50.862;6.220;2023-02-28T00:22:00;2.70;;;2.50;;
74904;SDS011;63465;50.862;6.220;2023-02-28T00:24:26;7.43;;;2.60;;
74904;SDS011;63465;50.862;6.220;2023-02-28T00:26:53;2.90;;;2.70;;
74904;SDS011;63465;50.862;6.220;2023-02-28T00:29:21;2.83;;;2.60;;
74904;SDS011;63465;50.862;6.220;2023-02-28T00:31:48;9.10;;;3.03;;
74904;SDS011;63465;50.862;6.220;2023-02-28T00:34:14;3.27;;;2.37;;
74904;SDS011;63465;50.862;6.220;2023-02-28T00:36:41;11.60;;;2.33;;
74904;SDS011;63465;50.862;6.220;2023-02-28T00:39:10;3.20;;;2.70;;
74904;SDS011;63465;50.862;6.220;2023-02-28T00:41:37;4.50;;;2.50;;
74904;SDS011;63465;50.862;6.220;2023-02-28T00:44:06;2.77;;;2.57;;
74904;SDS011;63465;50.862;6.220;2023-02-28T00:46:34;3.47;;;2.40;;
74904;SDS011;63465;50.862;6.220;2023-02-28T00:49:01;2.73;;;2.60;;
74904;SDS011;63465;50.862;6.220;2023-02-28T00:51:27;3.20;;;2.90;;
74904;SDS011;63465;50.862;6.220;2023-02-28T00:53:56;4.50;;;2.87;;
74904;SDS011;63465;50.862;6.220;2023-02-28T00:56:23;3.30;;;2.87;;
74904;SDS011;63465;50.862;6.220;2023-02-28T00:58:49;3.23;;;2.93;;
74904;SDS011;63465;50.862;6.220;2023-02-28T01:01:18;3.93;;;2.53;;
74904;SDS011;63465;50.862;6.220;2023-02-28T01:03:46;3.43;;;2.30;;
74904;SDS011;63465;50.862;6.220;2023-02-28T01:06:13;5.40;;;3.23;;
74904;SDS011;63465;50.862;6.220;2023-02-28T01:08:39;2.90;;;2.77;;
74904;SDS011;63465;50.862;6.220;2023-02-28T01:11:07;5.60;;;3.23;;
74904;SDS011;63465;50.862;6.220;2023-02-28T01:13:35;2.90;;;2.70;;
74904;SDS011;63465;50.862;6.220;2023-02-28T01:16:02;8.23;;;3.27;;
74904;SDS011;63465;50.862;6.220;2023-02-28T01:18:29;3.70;;;2.90;;
74904;SDS011;63465;50.862;6.220;2023-02-28T01:20:57;4.23;;;2.93;;
74904;SDS011;63465;50.862;6.220;2023-02-28T01:23:23;2.83;;;2.63;;
74904;SDS011;63465;50.862;6.220;2023-02-28T01:25:50;4.50;;;2.67;;
74904;SDS011;63465;50.862;6.220;2023-02-28T01:28:17;6.10;;;2.80;;
74904;SDS011;63465;50.862;6.220;2023-02-28T01:30:47;6.43;;;2.53;;
74904;SDS011;63465;50.862;6.220;2023-02-28T01:33:14;2.80;;;2.60;;
74904;SDS011;63465;50.862;6.220;2023-02-28T01:35:41;3.30;;;2.90;;
74904;SDS011;63465;50.862;6.220;2023-02-28T01:38:09;3.07;;;2.77;;
74904;SDS011;63465;50.862;6.220;2023-02-28T01:40:35;3.67;;;2.97;;
74904;SDS011;63465;50.862;6.220;2023-02-28T01:43:04;2.90;;;2.70;;
74904;SDS011;63465;50.862;6.220;2023-02-28T01:45:32;3.20;;;2.77;;
74904;SDS011;63465;50.862;6.220;2023-02-28T01:48:03;4.43;;;3.00;;
74904;SDS011;63465;50.862;6.220;2023-02-28T01:50:34;2.90;;;2.70;;
74904;SDS011;63465;50.862;6.220;2023-02-28T01:53:04;3.33;;;2.83;;
74904;SDS011;63465;50.862;6.220;2023-02-28T01:55:37;2.73;;;2.47;;
74904;SDS011;63465;50.862;6.220;2023-02-28T01:58:07;3.67;;;2.80;;
74904;SDS011;63465;50.862;6.220;2023-02-28T02:00:35;2.67;;;2.47;;
74904;SDS011;63465;50.862;6.220;2023-02-28T02:03:04;3.17;;;2.87;;
74904;SDS011;63465;50.862;6.220;2023-02-28T02:05:35;5.80;;;2.80;;
74904;SDS011;63465;50.862;6.220;2023-02-28T02:08:06;3.10;;;2.80;;
74904;SDS011;63465;50.862;6.220;2023-02-28T02:10:39;3.03;;;2.70;;
74904;SDS011;63465;50.862;6.220;2023-02-28T02:13:13;4.10;;;2.80;;
74904;SDS011;63465;50.862;6.220;2023-02-28T02:15:55;3.13;;;2.83;;
74904;SDS011;63465;50.862;6.220;2023-02-28T02:18:29;3.30;;;3.07;;
74904;SDS011;63465;50.862;6.220;2023-02-28T02:27:31;4.00;;;2.90;;
74904;SDS011;63465;50.862;6.220;2023-02-28T02:30:30;2.53;;;2.40;;
74904;SDS011;63465;50.862;6.220;2023-02-28T02:33:27;2.50;;;2.30;;
74904;SDS011;63465;50.862;6.220;2023-02-28T02:36:11;3.83;;;2.40;;
74904;SDS011;63465;50.862;6.220;2023-02-28T02:38:42;2.50;;;2.30;;
74904;SDS011;63465;50.862;6.220;2023-02-28T02:41:18;2.53;;;2.40;;
74904;SDS011;63465;50.862;6.220;2023-02-28T02:43:50;3.73;;;2.43;;
74904;SDS011;63465;50.862;6.220;2023-02-28T02:46:21;2.77;;;2.50;;
74904;SDS011;63465;50.862;6.220;2023-02-28T02:48:53;3.70;;;2.33;;
74904;SDS011;63465;50.862;6.220;2023-02-28T02:51:23;3.70;;;2.70;;
74904;SDS011;63465;50.862;6.220;2023-02-28T02:53:52;2.50;;;2.40;;
74904;SDS011;63465;50.862;6.220;2023-02-28T02:56:23;2.20;;;2.10;;
74904;SDS011;63465;50.862;6.220;2023-02-28T02:58:52;2.50;;;2.30;;
74904;SDS011;63465;50.862;6.220;2023-02-28T03:01:22;2.80;;;2.43;;
74904;SDS011;63465;50.862;6.220;2023-02-28T03:03:54;2.97;;;2.63;;
74904;SDS011;63465;50.862;6.220;2023-02-28T03:06:25;2.57;;;2.27;;
74904;SDS011;63465;50.862;6.220;2023-02-28T03:08:52;2.00;;;1.90;;
74904;SDS011;63465;50.862;6.220;2023-02-28T03:11:21;5.43;;;2.50;;
74904;SDS011;63465;50.862;6.220;2023-02-28T03:13:52;2.83;;;2.63;;
74904;SDS011;63465;50.862;6.220;2023-02-28T03:16:32;2.80;;;2.60;;
74904;SDS011;63465;50.862;6.220;2023-02-28T03:19:11;2.20;;;2.10;;
74904;SDS011;63465;50.862;6.220;2023-02-28T03:21:55;2.90;;;2.60;;
74904;SDS011;63465;50.862;6.220;2023-02-28T03:24:31;2.40;;;2.30;;
74904;SDS011;63465;50.862;6.220;2023-02-28T03:27:06;2.33;;;2.13;;
74904;SDS011;63465;50.862;6.220;2023-02-28T03:29:37;2.50;;;2.37;;
74904;SDS011;63465;50.862;6.220;2023-02-28T03:32:10;2.93;;;2.30;;
74904;SDS011;63465;50.862;6.220;2023-02-28T03:34:48;4.30;;;2.73;;
74904;SDS011;63465;50.862;6.220;2023-02-28T03:37:22;2.73;;;2.50;;
74904;SDS011;63465;50.862;6.220;2023-02-28T03:39:53;4.87;;;2.90;;
74904;SDS011;63465;50.862;6.220;2023-02-28T03:42:25;6.37;;;2.53;;
74904;SDS011;63465;50.862;6.220;2023-02-28T03:44:56;2.10;;;2.00;;
74904;SDS011;63465;50.862;6.220;2023-02-28T03:47:25;4.80;;;2.90;;
74904;SDS011;63465;50.862;6.220;2023-02-28T03:49:56;2.87;;;2.60;;
74904;SDS011;63465;50.862;6.220;2023-02-28T03:52:29;2.70;;;2.60;;
74904;SDS011;63465;50.862;6.220;2023-02-28T03:55:00;3.43;;;2.80;;
74904;SDS011;63465;50.862;6.220;2023-02-28T03:57:33;3.47;;;2.77;;
74904;SDS011;63465;50.862;6.220;2023-02-28T04:00:04;2.57;;;2.40;;
74904;SDS011;63465;50.862;6.220;2023-02-28T04:02:40;2.87;;;2.53;;
74904;SDS011;63465;50.862;6.220;2023-02-28T04:05:07;3.60;;;2.67;;
74904;SDS011;63465;50.862;6.220;2023-02-28T04:07:35;2.87;;;2.70;;
74904;SDS011;63465;50.862;6.220;2023-02-28T04:10:03;3.07;;;2.87;;
74904;SDS011;63465;50.862;6.220;2023-02-28T04:12:30;4.87;;;2.93;;
74904;SDS011;63465;50.862;6.220;2023-02-28T04:14:57;3.50;;;2.60;;
74904;SDS011;63465;50.862;6.220;2023-02-28T04:17:24;8.63;;;3.17;;
74904;SDS011;63465;50.862;6.220;2023-02-28T04:19:51;3.17;;;2.93;;
74904;SDS011;63465;50.862;6.220;2023-02-28T04:22:19;3.00;;;2.70;;
74904;SDS011;63465;50.862;6.220;2023-02-28T04:24:48;3.43;;;3.10;;
74904;SDS011;63465;50.862;6.220;2023-02-28T04:27:15;4.50;;;3.43;;
74904;SDS011;63465;50.862;6.220;2023-02-28T04:29:41;2.60;;;2.40;;
74904;SDS011;63465;50.862;6.220;2023-02-28T04:32:09;3.40;;;2.53;;
74904;SDS011;63465;50.862;6.220;2023-02-28T04:34:36;3.10;;;2.90;;
74904;SDS011;63465;50.862;6.220;2023-02-28T04:37:03;4.37;;;3.13;;
74904;SDS011;63465;50.862;6.220;2023-02-28T04:39:34;3.47;;;2.60;;
74904;SDS011;63465;50.862;6.220;2023-02-28T04:42:03;2.80;;;2.60;;
74904;SDS011;63465;50.862;6.220;2023-02-28T04:44:30;2.40;;;2.20;;
74904;SDS011;63465;50.862;6.220;2023-02-28T04:46:57;5.00;;;3.20;;
74904;SDS011;63465;50.862;6.220;2023-02-28T04:49:23;3.63;;;3.30;;
74904;SDS011;63465;50.862;6.220;2023-02-28T04:51:50;3.87;;;3.13;;
74904;SDS011;63465;50.862;6.220;2023-02-28T04:54:18;5.70;;;3.37;;
74904;SDS011;63465;50.862;6.220;2023-02-28T04:56:44;3.50;;;3.20;;
74904;SDS011;63465;50.862;6.220;2023-02-28T04:59:15;5.20;;;3.03;;
74904;SDS011;63465;50.862;6.220;2023-02-28T05:01:45;3.43;;;3.17;;
74904;SDS011;63465;50.862;6.220;2023-02-28T05:04:12;4.23;;;3.00;;
74904;SDS011;63465;50.862;6.220;2023-02-28T05:06:39;7.50;;;3.70;;
74904;SDS011;63465;50.862;6.220;2023-02-28T05:09:06;5.67;;;3.43;;
74904;SDS011;63465;50.862;6.220;2023-02-28T05:11:33;6.27;;;3.90;;
74904;SDS011;63465;50.862;6.220;2023-02-28T05:14:01;5.57;;;3.77;;
74904;SDS011;63465;50.862;6.220;2023-02-28T05:16:30;4.43;;;3.40;;
74904;SDS011;63465;50.862;6.220;2023-02-28T05:18:57;7.50;;;4.00;;
74904;SDS011;63465;50.862;6.220;2023-02-28T05:21:26;6.33;;;4.90;;
74904;SDS011;63465;50.862;6.220;2023-02-28T05:23:55;6.83;;;4.10;;
74904;SDS011;63465;50.862;6.220;2023-02-28T05:26:23;27.83;;;4.60;;
74904;SDS011;63465;50.862;6.220;2023-02-28T05:28:50;8.40;;;4.60;;
74904;SDS011;63465;50.862;6.220;2023-02-28T05:31:17;5.47;;;3.83;;
74904;SDS011;63465;50.862;6.220;2023-02-28T05:33:45;9.57;;;4.83;;
74904;SDS011;63465;50.862;6.220;2023-02-28T05:36:12;9.43;;;5.20;;
74904;SDS011;63465;50.862;6.220;2023-02-28T05:38:39;5.87;;;4.93;;
74904;SDS011;63465;50.862;6.220;2023-02-28T05:41:06;9.00;;;4.93;;
74904;SDS011;63465;50.862;6.220;2023-02-28T05:43:33;6.10;;;4.83;;
74904;SDS011;63465;50.862;6.220;2023-02-28T05:46:02;8.33;;;5.80;;
74904;SDS011;63465;50.862;6.220;2023-02-28T05:48:29;14.70;;;5.60;;
74904;SDS011;63465;50.862;6.220;2023-02-28T05:50:58;9.63;;;5.47;;
74904;SDS011;63465;50.862;6.220;2023-02-28T05:53:24;6.03;;;5.10;;
74904;SDS011;63465;50.862;6.220;2023-02-28T05:55:52;7.67;;;5.30;;
74904;SDS011;63465;50.862;6.220;2023-02-28T05:58:19;8.77;;;5.27;;
74904;SDS011;63465;50.862;6.220;2023-02-28T06:00:45;17.63;;;5.80;;
74904;SDS011;63465;50.862;6.220;2023-02-28T06:03:12;6.87;;;5.30;;
74904;SDS011;63465;50.862;6.220;2023-02-28T06:05:39;9.57;;;5.70;;
74904;SDS011;63465;50.862;6.220;2023-02-28T06:08:07;9.57;;;6.03;;
74904;SDS011;63465;50.862;6.220;2023-02-28T06:10:34;8.90;;;5.60;;
74904;SDS011;63465;50.862;6.220;2023-02-28T06:13:01;8.80;;;5.40;;
74904;SDS011;63465;50.862;6.220;2023-02-28T06:15:28;10.73;;;5.07;;
74904;SDS011;63465;50.862;6.220;2023-02-28T06:17:55;10.23;;;5.10;;
74904;SDS011;63465;50.862;6.220;2023-02-28T06:20:23;7.50;;;5.00;;
74904;SDS011;63465;50.862;6.220;2023-02-28T06:22:51;11.03;;;4.97;;
74904;SDS011;63465;50.862;6.220;2023-02-28T06:25:21;7.40;;;5.67;;
74904;SDS011;63465;50.862;6.220;2023-02-28T06:27:48;9.50;;;5.60;;
74904;SDS011;63465;50.862;6.220;2023-02-28T06:30:15;6.60;;;5.90;;
74904;SDS011;63465;50.862;6.220;2023-02-28T06:32:41;7.30;;;5.10;;
74904;SDS011;63465;50.862;6.220;2023-02-28T06:35:08;8.10;;;5.23;;
74904;SDS011;63465;50.862;6.220;2023-02-28T06:37:35;7.13;;;4.80;;
74904;SDS011;63465;50.862;6.220;2023-02-28T06:40:02;9.17;;;5.83;;
74904;SDS011;63465;50.862;6.220;2023-02-28T06:42:33;9.13;;;5.30;;
74904;SDS011;63465;50.862;6.220;2023-02-28T06:45:00;9.70;;;4.97;;
74904;SDS011;63465;50.862;6.220;2023-02-28T06:47:34;4.93;;;4.30;;
74904;SDS011;63465;50.862;6.220;2023-02-28T06:50:01;7.30;;;4.40;;
74904;SDS011;63465;50.862;6.220;2023-02-28T06:52:28;6.53;;;4.27;;
74904;SDS011;63465;50.862;6.220;2023-02-28T06:54:55;7.93;;;4.43;;
74904;SDS011;63465;50.862;6.220;2023-02-28T06:57:27;10.50;;;4.70;;
74904;SDS011;63465;50.862;6.220;2023-02-28T06:59:57;7.23;;;4.67;;
74904;SDS011;63465;50.862;6.220;2023-02-28T07:02:24;8.53;;;3.90;;
74904;SDS011;63465;50.862;6.220;2023-02-28T07:04:51;6.03;;;4.10;;
74904;SDS011;63465;50.862;6.220;2023-02-28T07:07:17;7.03;;;4.60;;
74904;SDS011;63465;50.862;6.220;2023-02-28T07:09:44;5.77;;;4.10;;
74904;SDS011;63465;50.862;6.220;2023-02-28T07:12:11;6.13;;;4.43;;
74904;SDS011;63465;50.862;6.220;2023-02-28T07:14:38;9.80;;;3.63;;
74904;SDS011;63465;50.862;6.220;2023-02-28T07:17:07;4.87;;;3.53;;
74904;SDS011;63465;50.862;6.220;2023-02-28T07:19:34;4.90;;;4.17;;
74904;SDS011;63465;50.862;6.220;2023-02-28T07:22:00;5.70;;;4.47;;
74904;SDS011;63465;50.862;6.220;2023-02-28T07:24:28;5.83;;;4.00;;
74904;SDS011;63465;50.862;6.220;2023-02-28T07:26:55;3.83;;;3.53;;
74904;SDS011;63465;50.862;6.220;2023-02-28T07:29:21;4.30;;;3.90;;
74904;SDS011;63465;50.862;6.220;2023-02-28T07:31:48;4.90;;;3.73;;
74904;SDS011;63465;50.862;6.220;2023-02-28T07:34:17;6.20;;;4.03;;
74904;SDS011;63465;50.862;6.220;2023-02-28T07:36:44;4.80;;;3.63;;
74904;SDS011;63465;50.862;6.220;2023-02-28T07:39:10;5.63;;;3.53;;
74904;SDS011;63465;50.862;6.220;2023-02-28T07:41:37;4.40;;;4.00;;
74904;SDS011;63465;50.862;6.220;2023-02-28T07:44:08;5.13;;;3.70;;
74904;SDS011;63465;50.862;6.220;2023-02-28T07:46:35;7.13;;;3.60;;
74904;SDS011;63465;50.862;6.220;2023-02-28T07:49:02;6.37;;;3.93;;
74904;SDS011;63465;50.862;6.220;2023-02-28T07:51:30;3.37;;;3.07;;
74904;SDS011;63465;50.862;6.220;2023-02-28T07:53:57;5.10;;;3.40;;
74904;SDS011;63465;50.862;6.220;2023-02-28T07:56:24;6.13;;;3.20;;
74904;SDS011;63465;50.862;6.220;2023-02-28T07:58:51;3.73;;;3.43;;
74904;SDS011;63465;50.862;6.220;2023-02-28T08:01:18;3.80;;;3.50;;
74904;SDS011;63465;50.862;6.220;2023-02-28T08:03:45;3.43;;;3.20;;
74904;SDS011;63465;50.862;6.220;2023-02-28T08:06:15;3.27;;;2.93;;
74904;SDS011;63465;50.862;6.220;2023-02-28T08:08:45;6.23;;;3.57;;
74904;SDS011;63465;50.862;6.220;2023-02-28T08:11:12;13.03;;;3.97;;
74904;SDS011;63465;50.862;6.220;2023-02-28T08:13:39;3.90;;;3.60;;
74904;SDS011;63465;50.862;6.220;2023-02-28T08:16:07;4.47;;;3.10;;
74904;SDS011;63465;50.862;6.220;2023-02-28T08:18:34;10.00;;;3.50;;
74904;SDS011;63465;50.862;6.220;2023-02-28T08:21:05;4.33;;;3.50;;
74904;SDS011;63465;50.862;6.220;2023-02-28T08:23:32;3.07;;;2.73;;
74904;SDS011;63465;50.862;6.220;2023-02-28T08:26:02;2.80;;;2.53;;
74904;SDS011;63465;50.862;6.220;2023-02-28T08:28:29;3.50;;;3.20;;
74904;SDS011;63465;50.862;6.220;2023-02-28T08:30:56;4.93;;;2.83;;
74904;SDS011;63465;50.862;6.220;2023-02-28T08:33:23;3.47;;;3.20;;
74904;SDS011;63465;50.862;6.220;2023-02-28T08:35:52;3.17;;;2.97;;
74904;SDS011;63465;50.862;6.220;2023-02-28T08:38:20;3.10;;;2.90;;
74904;SDS011;63465;50.862;6.220;2023-02-28T08:40:46;3.23;;;2.93;;
74904;SDS011;63465;50.862;6.220;2023-02-28T08:43:14;3.30;;;2.90;;
74904;SDS011;63465;50.862;6.220;2023-02-28T08:45:41;3.50;;;3.00;;
74904;SDS011;63465;50.862;6.220;2023-02-28T08:48:08;2.60;;;2.50;;
74904;SDS011;63465;50.862;6.220;2023-02-28T08:50:35;2.77;;;2.57;;
74904;SDS011;63465;50.862;6.220;2023-02-28T08:53:01;3.47;;;2.60;;
74904;SDS011;63465;50.862;6.220;2023-02-28T08:55:28;3.23;;;2.93;;
74904;SDS011;63465;50.862;6.220;2023-02-28T08:57:55;7.50;;;2.63;;
74904;SDS011;63465;50.862;6.220;2023-02-28T09:00:23;2.43;;;2.23;;
74904;SDS011;63465;50.862;6.220;2023-02-28T09:02:50;2.93;;;2.30;;
74904;SDS011;63465;50.862;6.220;2023-02-28T09:05:16;2.70;;;2.50;;
74904;SDS011;63465;50.862;6.220;2023-02-28T09:07:43;5.70;;;2.50;;
74904;SDS011;63465;50.862;6.220;2023-02-28T09:10:10;2.37;;;2.27;;
74904;SDS011;63465;50.862;6.220;2023-02-28T09:12:37;12.57;;;2.37;;
74904;SDS011;63465;50.862;6.220;2023-02-28T09:15:05;1.73;;;1.63;;
74904;SDS011;63465;50.862;6.220;2023-02-28T09:17:34;2.77;;;2.57;;
74904;SDS011;63465;50.862;6.220;2023-02-28T09:20:00;5.30;;;2.00;;
74904;SDS011;63465;50.862;6.220;2023-02-28T09:22:27;2.20;;;2.10;;
74904;SDS011;63465;50.862;6.220;2023-02-28T09:24:54;1.93;;;1.83;;
74904;SDS011;63465;50.862;6.220;2023-02-28T09:27:20;1.97;;;1.80;;
74904;SDS011;63465;50.862;6.220;2023-02-28T09:29:47;1.93;;;1.83;;
74904;SDS011;63465;50.862;6.220;2023-02-28T09:32:14;2.47;;;2.03;;
74904;SDS011;63465;50.862;6.220;2023-02-28T09:34:42;1.97;;;1.80;;
74904;SDS011;63465;50.862;6.220;2023-02-28T09:37:08;1.67;;;1.67;;
74904;SDS011;63465;50.862;6.220;2023-02-28T09:39:35;2.17;;;1.90;;
74904;SDS011;63465;50.862;6.220;2023-02-28T09:42:02;3.10;;;1.77;;
74904;SDS011;63465;50.862;6.220;2023-02-28T09:44:33;2.10;;;1.80;;
74904;SDS011;63465;50.862;6.220;2023-02-28T09:47:05;2.93;;;1.83;;
74904;SDS011;63465;50.862;6.220;2023-02-28T09:49:38;2.03;;;1.60;;
74904;SDS011;63465;50.862;6.220;2023-02-28T09:52:12;3.50;;;1.67;;
74904;SDS011;63465;50.862;6.220;2023-02-28T09:54:42;2.00;;;1.90;;
74904;SDS011;63465;50.862;6.220;2023-02-28T09:57:13;2.03;;;1.93;;
74904;SDS011;63465;50.862;6.220;2023-02-28T09:59:51;4.67;;;1.70;;
74904;SDS011;63465;50.862;6.220;2023-02-28T10:05:27;2.80;;;1.30;;
74904;SDS011;63465;50.862;6.220;2023-02-28T10:08:00;2.00;;;1.80;;
74904;SDS011;63465;50.862;6.220;2023-02-28T10:10:34;2.63;;;2.00;;
74904;SDS011;63465;50.862;6.220;2023-02-28T10:13:07;2.23;;;1.97;;
74904;SDS011;63465;50.862;6.220;2023-02-28T10:15:41;1.70;;;1.60;;
74904;SDS011;63465;50.862;6.220;2023-02-28T10:18:12;11.97;;;3.10;;
74904;SDS011;63465;50.862;6.220;2023-02-28T10:20:44;6.60;;;3.50;;
74904;SDS011;63465;50.862;6.220;2023-02-28T10:23:13;2.13;;;1.80;;
74904;SDS011;63465;50.862;6.220;2023-02-28T10:25:47;1.53;;;1.43;;
74904;SDS011;63465;50.862;6.220;2023-02-28T10:28:19;2.40;;;2.20;;
74904;SDS011;63465;50.862;6.220;2023-02-28T10:30:47;2.37;;;2.17;;
74904;SDS011;63465;50.862;6.220;2023-02-28T10:33:19;1.90;;;1.80;;
74904;SDS011;63465;50.862;6.220;2023-02-28T10:35:50;1.67;;;1.57;;
74904;SDS011;63465;50.862;6.220;2023-02-28T10:40:47;1.70;;;1.60;;
74904;SDS011;63465;50.862;6.220;2023-02-28T10:43:18;1.80;;;1.63;;
74904;SDS011;63465;50.862;6.220;2023-02-28T10:45:54;2.00;;;1.90;;
74904;SDS011;63465;50.862;6.220;2023-02-28T10:48:26;3.67;;;2.00;;
74904;SDS011;63465;50.862;6.220;2023-02-28T10:50:57;2.77;;;1.70;;
74904;SDS011;63465;50.862;6.220;2023-02-28T10:53:28;1.87;;;1.77;;
74904;SDS011;63465;50.862;6.220;2023-02-28T10:56:02;2.10;;;1.90;;
74904;SDS011;63465;50.862;6.220;2023-02-28T10:58:31;2.77;;;2.00;;
74904;SDS011;63465;50.862;6.220;2023-02-28T11:01:12;1.80;;;1.70;;
74904;SDS011;63465;50.862;6.220;2023-02-28T11:03:40;2.63;;;2.23;;
74904;SDS011;63465;50.862;6.220;2023-02-28T11:06:12;1.80;;;1.70;;
74904;SDS011;63465;50.862;6.220;2023-02-28T11:08:49;2.60;;;2.17;;
74904;SDS011;63465;50.862;6.220;2023-02-28T11:11:18;4.73;;;2.17;;
74904;SDS011;63465;50.862;6.220;2023-02-28T11:13:46;2.00;;;1.90;;
74904;SDS011;63465;50.862;6.220;2023-02-28T11:16:16;2.30;;;2.03;;
74904;SDS011;63465;50.862;6.220;2023-02-28T11:18:46;1.90;;;1.80;;
74904;SDS011;63465;50.862;6.220;2023-02-28T11:21:18;1.97;;;1.80;;
74904;SDS011;63465;50.862;6.220;2023-02-28T11:23:48;3.20;;;2.37;;
74904;SDS011;63465;50.862;6.220;2023-02-28T11:29:08;2.50;;;2.30;;
74904;SDS011;63465;50.862;6.220;2023-02-28T11:31:37;2.53;;;2.33;;
74904;SDS011;63465;50.862;6.220;2023-02-28T11:34:20;2.93;;;1.93;;
74904;SDS011;63465;50.862;6.220;2023-02-28T11:36:52;3.40;;;2.20;;
74904;SDS011;63465;50.862;6.220;2023-02-28T11:39:22;3.53;;;2.20;;
74904;SDS011;63465;50.862;6.220;2023-02-28T11:41:56;2.10;;;2.00;;
74904;SDS011;63465;50.862;6.220;2023-02-28T11:44:39;1.87;;;1.77;;
74904;SDS011;63465;50.862;6.220;2023-02-28T11:47:22;2.60;;;2.40;;
74904;SDS011;63465;50.862;6.220;2023-02-28T11:50:02;2.40;;;2.20;;
74904;SDS011;63465;50.862;6.220;2023-02-28T11:52:42;2.30;;;2.10;;
74904;SDS011;63465;50.862;6.220;2023-02-28T11:55:16;3.90;;;2.87;;
74904;SDS011;63465;50.862;6.220;2023-02-28T11:57:52;2.40;;;2.20;;
74904;SDS011;63465;50.862;6.220;2023-02-28T12:00:40;2.13;;;2.00;;
74904;SDS011;63465;50.862;6.220;2023-02-28T12:03:22;2.30;;;2.20;;
74904;SDS011;63465;50.862;6.220;2023-02-28T12:05:57;2.07;;;1.93;;
74904;SDS011;63465;50.862;6.220;2023-02-28T12:08:40;4.23;;;2.50;;
74904;SDS011;63465;50.862;6.220;2023-02-28T12:11:15;5.43;;;2.83;;
74904;SDS011;63465;50.862;6.220;2023-02-28T12:13:55;2.80;;;2.60;;
74904;SDS011;63465;50.862;6.220;2023-02-28T12:16:48;2.53;;;2.33;;
74904;SDS011;63465;50.862;6.220;2023-02-28T12:19:27;3.13;;;2.90;;
74904;SDS011;63465;50.862;6.220;2023-02-28T12:22:12;2.40;;;2.23;;
74904;SDS011;63465;50.862;6.220;2023-02-28T12:27:50;3.10;;;2.33;;
74904;SDS011;63465;50.862;6.220;2023-02-28T12:30:19;4.93;;;2.27;;
74904;SDS011;63465;50.862;6.220;2023-02-28T12:32:49;2.87;;;2.67;;
74904;SDS011;63465;50.862;6.220;2023-02-28T12:35:22;5.33;;;2.90;;
74904;SDS011;63465;50.862;6.220;2023-02-28T12:37:54;2.97;;;2.77;;
74904;SDS011;63465;50.862;6.220;2023-02-28T12:40:26;2.70;;;2.60;;
74904;SDS011;63465;50.862;6.220;2023-02-28T12:42:56;4.53;;;2.27;;
74904;SDS011;63465;50.862;6.220;2023-02-28T12:45:39;2.50;;;2.30;;
74904;SDS011;63465;50.862;6.220;2023-02-28T12:48:09;2.30;;;2.17;;
74904;SDS011;63465;50.862;6.220;2023-02-28T12:50:39;4.07;;;2.50;;
74904;SDS011;63465;50.862;6.220;2023-02-28T12:53:08;2.63;;;2.50;;
74904;SDS011;63465;50.862;6.220;2023-02-28T12:55:42;4.73;;;2.70;;
74904;SDS011;63465;50.862;6.220;2023-02-28T12:58:16;2.57;;;2.47;;
74904;SDS011;63465;50.862;6.220;2023-02-28T13:06:59;4.10;;;2.63;;
74904;SDS011;63465;50.862;6.220;2023-02-28T13:09:40;3.10;;;2.90;;
74904;SDS011;63465;50.862;6.220;2023-02-28T13:12:12;2.77;;;2.57;;
74904;SDS011;63465;50.862;6.220;2023-02-28T13:14:41;4.70;;;3.00;;
74904;SDS011;63465;50.862;6.220;2023-02-28T13:17:12;8.53;;;2.60;;
74904;SDS011;63465;50.862;6.220;2023-02-28T13:19:45;3.13;;;2.93;;
74904;SDS011;63465;50.862;6.220;2023-02-28T13:22:17;2.50;;;2.40;;
74904;SDS011;63465;50.862;6.220;2023-02-28T13:24:46;3.40;;;3.00;;
74904;SDS011;63465;50.862;6.220;2023-02-28T13:30:49;3.10;;;2.80;;
74904;SDS011;63465;50.862;6.220;2023-02-28T13:33:24;3.03;;;2.70;;
74904;SDS011;63465;50.862;6.220;2023-02-28T13:38:37;2.83;;;2.73;;
74904;SDS011;63465;50.862;6.220;2023-02-28T13:44:11;2.87;;;2.67;;
74904;SDS011;63465;50.862;6.220;2023-02-28T13:49:45;3.33;;;2.50;;
74904;SDS011;63465;50.862;6.220;2023-02-28T13:52:13;4.03;;;2.87;;
74904;SDS011;63465;50.862;6.220;2023-02-28T13:54:50;4.77;;;3.60;;
74904;SDS011;63465;50.862;6.220;2023-02-28T13:57:44;3.40;;;3.10;;
74904;SDS011;63465;50.862;6.220;2023-02-28T14:00:31;4.43;;;3.13;;
74904;SDS011;63465;50.862;6.220;2023-02-28T14:03:14;6.23;;;3.07;;
74904;SDS011;63465;50.862;6.220;2023-02-28T14:08:37;3.77;;;3.47;;
74904;SDS011;63465;50.862;6.220;2023-02-28T14:11:22;3.57;;;3.20;;
74904;SDS011;63465;50.862;6.220;2023-02-28T14:13:52;3.17;;;2.90;;
74904;SDS011;63465;50.862;6.220;2023-02-28T14:16:20;4.30;;;3.30;;
74904;SDS011;63465;50.862;6.220;2023-02-28T14:18:49;3.77;;;3.10;;
74904;SDS011;63465;50.862;6.220;2023-02-28T14:21:24;3.47;;;3.07;;
74904;SDS011;63465;50.862;6.220;2023-02-28T14:24:03;4.10;;;2.80;;
74904;SDS011;63465;50.862;6.220;2023-02-28T14:27:13;3.43;;;3.13;;
74904;SDS011;63465;50.862;6.220;2023-02-28T14:30:03;3.87;;;3.03;;
74904;SDS011;63465;50.862;6.220;2023-02-28T14:32:41;3.20;;;2.90;;
74904;SDS011;63465;50.862;6.220;2023-02-28T14:35:17;2.87;;;2.67;;
74904;SDS011;63465;50.862;6.220;2023-02-28T14:37:56;3.30;;;3.00;;
74904;SDS011;63465;50.862;6.220;2023-02-28T14:40:25;7.10;;;2.97;;
74904;SDS011;63465;50.862;6.220;2023-02-28T14:42:57;3.20;;;2.90;;
74904;SDS011;63465;50.862;6.220;2023-02-28T14:45:25;3.13;;;2.87;;
74904;SDS011;63465;50.862;6.220;2023-02-28T14:47:55;3.87;;;3.53;;
74904;SDS011;63465;50.862;6.220;2023-02-28T14:50:33;4.73;;;3.40;;
74904;SDS011;63465;50.862;6.220;2023-02-28T14:53:03;3.30;;;3.00;;
74904;SDS011;63465;50.862;6.220;2023-02-28T14:55:33;3.20;;;2.90;;
74904;SDS011;63465;50.862;6.220;2023-02-28T14:58:03;3.57;;;3.10;;
74904;SDS011;63465;50.862;6.220;2023-02-28T15:00:32;3.77;;;3.27;;
74904;SDS011;63465;50.862;6.220;2023-02-28T15:03:01;5.70;;;3.30;;
74904;SDS011;63465;50.862;6.220;2023-02-28T15:05:47;3.70;;;2.97;;
74904;SDS011;63465;50.862;6.220;2023-02-28T15:08:20;4.10;;;3.00;;
74904;SDS011;63465;50.862;6.220;2023-02-28T15:10:50;4.37;;;3.33;;
74904;SDS011;63465;50.862;6.220;2023-02-28T15:13:19;2.83;;;2.63;;
74904;SDS011;63465;50.862;6.220;2023-02-28T15:15:48;4.73;;;3.50;;
74904;SDS011;63465;50.862;6.220;2023-02-28T15:18:22;4.90;;;3.90;;
74904;SDS011;63465;50.862;6.220;2023-02-28T15:20:54;4.17;;;3.77;;
74904;SDS011;63465;50.862;6.220;2023-02-28T15:23:25;5.47;;;4.90;;
74904;SDS011;63465;50.862;6.220;2023-02-28T15:25:51;5.60;;;5.10;;
74904;SDS011;63465;50.862;6.220;2023-02-28T15:28:20;20.77;;;13.17;;
74904;SDS011;63465;50.862;6.220;2023-02-28T15:30:50;7.63;;;6.37;;
74904;SDS011;63465;50.862;6.220;2023-02-28T15:33:20;18.20;;;11.10;;
74904;SDS011;63465;50.862;6.220;2023-02-28T15:35:49;6.27;;;4.23;;
74904;SDS011;63465;50.862;6.220;2023-02-28T15:38:18;5.67;;;4.10;;
74904;SDS011;63465;50.862;6.220;2023-02-28T15:40:51;5.00;;;4.27;;
74904;SDS011;63465;50.862;6.220;2023-02-28T15:43:25;42.77;;;18.70;;
74904;SDS011;63465;50.862;6.220;2023-02-28T15:45:55;30.77;;;14.13;;
74904;SDS011;63465;50.862;6.220;2023-02-28T15:48:25;28.93;;;14.63;;